sensor_id;sensor_type;location;lat;lon;timestamp;P1;durP1;ratioP1;P2;durP2;ratioP2
32186;SDS011;18686;53.084;8.872;2022-07-05T00:00:59;5.70;;;1.42;;
32186;SDS011;18686;53.084;8.872;2022-07-05T00:03:28;5.03;;;1.38;;
32186;SDS011;18686;53.084;8.872;2022-07-05T00:05:56;3.58;;;1.20;;
32186;SDS011;18686;53.084;8.872;2022-07-05T00:08:25;2.65;;;1.00;;
32186;SDS011;18686;53.084;8.872;2022-07-05T00:10:53;4.95;;;1.40;;
32186;SDS011;18686;53.084;8.872;2022-07-05T00:13:22;3.45;;;1.40;;
32186;SDS011;18686;53.084;8.872;2022-07-05T00:15:51;2.05;;;1.30;;
32186;SDS011;18686;53.084;8.872;2022-07-05T00:18:19;2.55;;;1.27;;
32186;SDS011;18686;53.084;8.872;2022-07-05T00:20:47;4.78;;;1.50;;
32186;SDS011;18686;53.084;8.872;2022-07-05T00:23:15;4.07;;;1.50;;
32186;SDS011;18686;53.084;8.872;2022-07-05T00:25:43;3.25;;;1.40;;
32186;SDS011;18686;53.084;8.872;2022-07-05T00:28:11;3.13;;;1.30;;
32186;SDS011;18686;53.084;8.872;2022-07-05T00:30:43;4.10;;;1.27;;
32186;SDS011;18686;53.084;8.872;2022-07-05T00:33:11;2.83;;;1.30;;
32186;SDS011;18686;53.084;8.872;2022-07-05T00:35:39;2.67;;;1.10;;
32186;SDS011;18686;53.084;8.872;2022-07-05T00:38:07;3.92;;;1.38;;
32186;SDS011;18686;53.084;8.872;2022-07-05T00:40:35;2.95;;;1.65;;
32186;SDS011;18686;53.084;8.872;2022-07-05T00:43:04;3.25;;;1.20;;
32186;SDS011;18686;53.084;8.872;2022-07-05T00:45:32;3.85;;;1.40;;
32186;SDS011;18686;53.084;8.872;2022-07-05T00:48:01;6.28;;;1.42;;
32186;SDS011;18686;53.084;8.872;2022-07-05T00:50:30;8.15;;;2.42;;
32186;SDS011;18686;53.084;8.872;2022-07-05T00:52:58;4.32;;;1.50;;
32186;SDS011;18686;53.084;8.872;2022-07-05T00:55:27;7.32;;;1.40;;
32186;SDS011;18686;53.084;8.872;2022-07-05T00:57:55;3.80;;;1.20;;
32186;SDS011;18686;53.084;8.872;2022-07-05T01:00:23;5.68;;;1.52;;
32186;SDS011;18686;53.084;8.872;2022-07-05T01:02:51;4.00;;;1.55;;
32186;SDS011;18686;53.084;8.872;2022-07-05T01:05:21;2.55;;;1.50;;
32186;SDS011;18686;53.084;8.872;2022-07-05T01:07:49;1.65;;;1.50;;
32186;SDS011;18686;53.084;8.872;2022-07-05T01:10:17;4.57;;;1.48;;
32186;SDS011;18686;53.084;8.872;2022-07-05T01:12:45;2.25;;;1.65;;
32186;SDS011;18686;53.084;8.872;2022-07-05T01:15:14;5.05;;;1.83;;
32186;SDS011;18686;53.084;8.872;2022-07-05T01:17:43;10.07;;;1.90;;
32186;SDS011;18686;53.084;8.872;2022-07-05T01:20:12;7.00;;;1.98;;
32186;SDS011;18686;53.084;8.872;2022-07-05T01:22:51;8.45;;;2.03;;
32186;SDS011;18686;53.084;8.872;2022-07-05T01:25:23;6.28;;;2.03;;
32186;SDS011;18686;53.084;8.872;2022-07-05T01:27:52;3.20;;;1.70;;
32186;SDS011;18686;53.084;8.872;2022-07-05T01:30:21;5.70;;;2.10;;
32186;SDS011;18686;53.084;8.872;2022-07-05T01:32:50;7.35;;;2.15;;
32186;SDS011;18686;53.084;8.872;2022-07-05T01:35:19;4.95;;;1.83;;
32186;SDS011;18686;53.084;8.872;2022-07-05T01:37:47;4.65;;;2.28;;
32186;SDS011;18686;53.084;8.872;2022-07-05T01:40:18;4.10;;;1.80;;
32186;SDS011;18686;53.084;8.872;2022-07-05T01:42:47;4.65;;;2.63;;
32186;SDS011;18686;53.084;8.872;2022-07-05T01:45:15;4.85;;;2.78;;
32186;SDS011;18686;53.084;8.872;2022-07-05T01:48:06;6.18;;;2.38;;
32186;SDS011;18686;53.084;8.872;2022-07-05T01:50:36;5.38;;;2.42;;
32186;SDS011;18686;53.084;8.872;2022-07-05T01:53:08;4.78;;;2.72;;
32186;SDS011;18686;53.084;8.872;2022-07-05T01:58:10;4.85;;;2.20;;
32186;SDS011;18686;53.084;8.872;2022-07-05T02:00:43;4.47;;;2.40;;
32186;SDS011;18686;53.084;8.872;2022-07-05T02:03:13;5.50;;;3.22;;
32186;SDS011;18686;53.084;8.872;2022-07-05T02:05:59;8.10;;;3.72;;
32186;SDS011;18686;53.084;8.872;2022-07-05T02:08:28;4.35;;;2.80;;
32186;SDS011;18686;53.084;8.872;2022-07-05T02:10:58;3.55;;;2.60;;
32186;SDS011;18686;53.084;8.872;2022-07-05T02:13:27;4.50;;;2.58;;
32186;SDS011;18686;53.084;8.872;2022-07-05T02:15:56;4.50;;;2.72;;
32186;SDS011;18686;53.084;8.872;2022-07-05T02:18:24;2.95;;;2.38;;
32186;SDS011;18686;53.084;8.872;2022-07-05T02:20:54;4.85;;;2.55;;
32186;SDS011;18686;53.084;8.872;2022-07-05T02:23:22;5.68;;;2.72;;
32186;SDS011;18686;53.084;8.872;2022-07-05T02:25:53;5.35;;;2.75;;
32186;SDS011;18686;53.084;8.872;2022-07-05T02:28:23;7.30;;;3.00;;
32186;SDS011;18686;53.084;8.872;2022-07-05T02:30:52;6.60;;;3.25;;
32186;SDS011;18686;53.084;8.872;2022-07-05T02:33:23;6.93;;;2.83;;
32186;SDS011;18686;53.084;8.872;2022-07-05T02:35:52;4.05;;;2.92;;
32186;SDS011;18686;53.084;8.872;2022-07-05T02:38:20;6.47;;;3.15;;
32186;SDS011;18686;53.084;8.872;2022-07-05T02:40:49;8.73;;;3.17;;
32186;SDS011;18686;53.084;8.872;2022-07-05T02:43:18;5.30;;;3.45;;
32186;SDS011;18686;53.084;8.872;2022-07-05T02:45:48;7.07;;;3.60;;
32186;SDS011;18686;53.084;8.872;2022-07-05T02:48:17;5.20;;;2.70;;
32186;SDS011;18686;53.084;8.872;2022-07-05T02:50:45;5.55;;;3.05;;
32186;SDS011;18686;53.084;8.872;2022-07-05T02:53:14;3.65;;;2.72;;
32186;SDS011;18686;53.084;8.872;2022-07-05T02:55:42;4.22;;;3.35;;
32186;SDS011;18686;53.084;8.872;2022-07-05T02:58:10;7.68;;;3.13;;
32186;SDS011;18686;53.084;8.872;2022-07-05T03:00:39;4.25;;;2.85;;
32186;SDS011;18686;53.084;8.872;2022-07-05T03:03:09;4.45;;;3.45;;
32186;SDS011;18686;53.084;8.872;2022-07-05T03:05:38;5.45;;;3.63;;
32186;SDS011;18686;53.084;8.872;2022-07-05T03:08:06;5.20;;;3.05;;
32186;SDS011;18686;53.084;8.872;2022-07-05T03:10:36;3.35;;;2.88;;
32186;SDS011;18686;53.084;8.872;2022-07-05T03:13:06;4.10;;;3.28;;
32186;SDS011;18686;53.084;8.872;2022-07-05T03:15:36;5.25;;;3.40;;
32186;SDS011;18686;53.084;8.872;2022-07-05T03:18:04;5.18;;;3.60;;
32186;SDS011;18686;53.084;8.872;2022-07-05T03:20:35;8.93;;;3.60;;
32186;SDS011;18686;53.084;8.872;2022-07-05T03:23:03;5.05;;;3.60;;
32186;SDS011;18686;53.084;8.872;2022-07-05T03:25:39;4.68;;;3.60;;
32186;SDS011;18686;53.084;8.872;2022-07-05T03:28:08;7.25;;;3.40;;
32186;SDS011;18686;53.084;8.872;2022-07-05T03:30:39;5.90;;;3.85;;
32186;SDS011;18686;53.084;8.872;2022-07-05T03:33:07;4.40;;;3.60;;
32186;SDS011;18686;53.084;8.872;2022-07-05T03:35:40;4.85;;;3.40;;
32186;SDS011;18686;53.084;8.872;2022-07-05T03:38:08;5.57;;;3.60;;
32186;SDS011;18686;53.084;8.872;2022-07-05T03:40:37;7.15;;;4.10;;
32186;SDS011;18686;53.084;8.872;2022-07-05T03:43:05;6.57;;;4.07;;
32186;SDS011;18686;53.084;8.872;2022-07-05T03:45:36;4.88;;;3.53;;
32186;SDS011;18686;53.084;8.872;2022-07-05T03:48:05;5.18;;;3.67;;
32186;SDS011;18686;53.084;8.872;2022-07-05T03:50:56;9.60;;;4.07;;
32186;SDS011;18686;53.084;8.872;2022-07-05T03:53:24;15.65;;;5.32;;
32186;SDS011;18686;53.084;8.872;2022-07-05T03:55:53;8.57;;;4.72;;
32186;SDS011;18686;53.084;8.872;2022-07-05T03:58:21;5.88;;;3.95;;
32186;SDS011;18686;53.084;8.872;2022-07-05T04:00:50;7.32;;;4.93;;
32186;SDS011;18686;53.084;8.872;2022-07-05T04:03:22;10.13;;;5.80;;
32186;SDS011;18686;53.084;8.872;2022-07-05T04:05:52;8.00;;;4.32;;
32186;SDS011;18686;53.084;8.872;2022-07-05T04:08:22;5.68;;;3.80;;
32186;SDS011;18686;53.084;8.872;2022-07-05T04:10:50;5.53;;;3.75;;
32186;SDS011;18686;53.084;8.872;2022-07-05T04:13:20;5.35;;;3.42;;
32186;SDS011;18686;53.084;8.872;2022-07-05T04:15:51;8.50;;;4.32;;
32186;SDS011;18686;53.084;8.872;2022-07-05T04:18:22;9.52;;;5.25;;
32186;SDS011;18686;53.084;8.872;2022-07-05T04:20:53;6.20;;;4.53;;
32186;SDS011;18686;53.084;8.872;2022-07-05T04:23:22;9.48;;;4.75;;
32186;SDS011;18686;53.084;8.872;2022-07-05T04:25:51;7.32;;;4.60;;
32186;SDS011;18686;53.084;8.872;2022-07-05T04:28:38;10.15;;;4.30;;
32186;SDS011;18686;53.084;8.872;2022-07-05T04:31:09;5.78;;;3.80;;
32186;SDS011;18686;53.084;8.872;2022-07-05T04:33:41;4.60;;;3.67;;
32186;SDS011;18686;53.084;8.872;2022-07-05T04:36:13;3.75;;;2.65;;
32186;SDS011;18686;53.084;8.872;2022-07-05T04:38:42;6.45;;;3.00;;
32186;SDS011;18686;53.084;8.872;2022-07-05T04:41:11;3.13;;;2.75;;
32186;SDS011;18686;53.084;8.872;2022-07-05T04:43:40;6.07;;;3.20;;
32186;SDS011;18686;53.084;8.872;2022-07-05T04:46:11;5.10;;;3.13;;
32186;SDS011;18686;53.084;8.872;2022-07-05T04:48:40;3.17;;;2.38;;
32186;SDS011;18686;53.084;8.872;2022-07-05T04:51:10;4.93;;;2.78;;
32186;SDS011;18686;53.084;8.872;2022-07-05T04:53:39;3.13;;;2.45;;
32186;SDS011;18686;53.084;8.872;2022-07-05T04:56:09;5.50;;;2.95;;
32186;SDS011;18686;53.084;8.872;2022-07-05T04:58:37;4.97;;;2.95;;
32186;SDS011;18686;53.084;8.872;2022-07-05T05:01:05;4.10;;;2.75;;
32186;SDS011;18686;53.084;8.872;2022-07-05T05:03:33;3.90;;;2.92;;
32186;SDS011;18686;53.084;8.872;2022-07-05T05:06:02;6.15;;;3.33;;
32186;SDS011;18686;53.084;8.872;2022-07-05T05:08:30;3.65;;;2.55;;
32186;SDS011;18686;53.084;8.872;2022-07-05T05:10:58;5.72;;;2.70;;
32186;SDS011;18686;53.084;8.872;2022-07-05T05:13:27;6.05;;;2.50;;
32186;SDS011;18686;53.084;8.872;2022-07-05T05:15:55;3.97;;;2.35;;
32186;SDS011;18686;53.084;8.872;2022-07-05T05:18:24;4.30;;;2.10;;
32186;SDS011;18686;53.084;8.872;2022-07-05T05:20:53;5.90;;;2.53;;
32186;SDS011;18686;53.084;8.872;2022-07-05T05:23:22;4.55;;;2.10;;
32186;SDS011;18686;53.084;8.872;2022-07-05T05:25:50;4.68;;;1.90;;
32186;SDS011;18686;53.084;8.872;2022-07-05T05:28:18;4.47;;;2.10;;
32186;SDS011;18686;53.084;8.872;2022-07-05T05:30:48;2.75;;;1.80;;
32186;SDS011;18686;53.084;8.872;2022-07-05T05:33:16;3.85;;;1.63;;
32186;SDS011;18686;53.084;8.872;2022-07-05T05:35:49;3.50;;;1.70;;
32186;SDS011;18686;53.084;8.872;2022-07-05T05:38:17;4.20;;;2.95;;
32186;SDS011;18686;53.084;8.872;2022-07-05T05:40:46;5.45;;;1.90;;
32186;SDS011;18686;53.084;8.872;2022-07-05T05:43:14;6.53;;;1.92;;
32186;SDS011;18686;53.084;8.872;2022-07-05T05:45:42;4.85;;;2.40;;
32186;SDS011;18686;53.084;8.872;2022-07-05T05:48:11;6.80;;;2.17;;
32186;SDS011;18686;53.084;8.872;2022-07-05T05:50:40;4.75;;;1.50;;
32186;SDS011;18686;53.084;8.872;2022-07-05T05:53:08;4.53;;;1.40;;
32186;SDS011;18686;53.084;8.872;2022-07-05T05:55:36;2.30;;;1.20;;
32186;SDS011;18686;53.084;8.872;2022-07-05T05:58:11;3.25;;;1.25;;
32186;SDS011;18686;53.084;8.872;2022-07-05T06:00:39;4.00;;;1.42;;
32186;SDS011;18686;53.084;8.872;2022-07-05T06:03:08;3.50;;;1.23;;
32186;SDS011;18686;53.084;8.872;2022-07-05T06:05:37;2.88;;;1.25;;
32186;SDS011;18686;53.084;8.872;2022-07-05T06:08:05;2.85;;;1.10;;
32186;SDS011;18686;53.084;8.872;2022-07-05T06:10:34;1.67;;;1.00;;
32186;SDS011;18686;53.084;8.872;2022-07-05T06:13:03;1.65;;;0.98;;
32186;SDS011;18686;53.084;8.872;2022-07-05T06:15:32;3.55;;;1.30;;
32186;SDS011;18686;53.084;8.872;2022-07-05T06:18:00;5.07;;;1.13;;
32186;SDS011;18686;53.084;8.872;2022-07-05T06:20:29;4.35;;;2.05;;
32186;SDS011;18686;53.084;8.872;2022-07-05T06:23:00;4.40;;;1.88;;
32186;SDS011;18686;53.084;8.872;2022-07-05T06:25:30;3.05;;;1.27;;
32186;SDS011;18686;53.084;8.872;2022-07-05T06:28:02;4.97;;;1.52;;
32186;SDS011;18686;53.084;8.872;2022-07-05T06:30:32;2.38;;;1.20;;
32186;SDS011;18686;53.084;8.872;2022-07-05T06:33:01;2.30;;;1.20;;
32186;SDS011;18686;53.084;8.872;2022-07-05T06:35:30;3.92;;;1.55;;
32186;SDS011;18686;53.084;8.872;2022-07-05T06:38:00;2.75;;;1.02;;
32186;SDS011;18686;53.084;8.872;2022-07-05T06:40:29;3.08;;;1.38;;
32186;SDS011;18686;53.084;8.872;2022-07-05T06:42:59;4.00;;;1.30;;
32186;SDS011;18686;53.084;8.872;2022-07-05T06:45:36;3.00;;;1.15;;
32186;SDS011;18686;53.084;8.872;2022-07-05T06:48:05;3.50;;;1.45;;
32186;SDS011;18686;53.084;8.872;2022-07-05T06:50:35;3.50;;;0.73;;
32186;SDS011;18686;53.084;8.872;2022-07-05T06:53:05;2.53;;;0.93;;
32186;SDS011;18686;53.084;8.872;2022-07-05T06:55:34;3.03;;;1.10;;
32186;SDS011;18686;53.084;8.872;2022-07-05T06:58:03;3.70;;;0.80;;
32186;SDS011;18686;53.084;8.872;2022-07-05T07:00:40;2.45;;;1.13;;
32186;SDS011;18686;53.084;8.872;2022-07-05T07:03:28;4.15;;;1.10;;
32186;SDS011;18686;53.084;8.872;2022-07-05T07:06:17;4.00;;;0.88;;
32186;SDS011;18686;53.084;8.872;2022-07-05T07:08:47;3.05;;;0.85;;
32186;SDS011;18686;53.084;8.872;2022-07-05T07:11:31;3.80;;;1.33;;
32186;SDS011;18686;53.084;8.872;2022-07-05T07:14:00;4.30;;;2.50;;
32186;SDS011;18686;53.084;8.872;2022-07-05T07:16:28;2.60;;;1.17;;
32186;SDS011;18686;53.084;8.872;2022-07-05T07:18:57;3.83;;;0.70;;
32186;SDS011;18686;53.084;8.872;2022-07-05T07:21:41;1.45;;;0.60;;
32186;SDS011;18686;53.084;8.872;2022-07-05T07:24:11;3.38;;;0.80;;
32186;SDS011;18686;53.084;8.872;2022-07-05T07:26:40;2.72;;;0.70;;
32186;SDS011;18686;53.084;8.872;2022-07-05T07:29:25;4.32;;;0.80;;
32186;SDS011;18686;53.084;8.872;2022-07-05T07:31:53;1.75;;;0.50;;
32186;SDS011;18686;53.084;8.872;2022-07-05T07:34:21;2.05;;;0.50;;
32186;SDS011;18686;53.084;8.872;2022-07-05T07:36:50;3.35;;;0.60;;
32186;SDS011;18686;53.084;8.872;2022-07-05T07:39:20;4.50;;;1.08;;
32186;SDS011;18686;53.084;8.872;2022-07-05T07:41:48;1.05;;;0.52;;
32186;SDS011;18686;53.084;8.872;2022-07-05T07:44:16;1.35;;;0.47;;
32186;SDS011;18686;53.084;8.872;2022-07-05T07:46:44;4.95;;;0.52;;
32186;SDS011;18686;53.084;8.872;2022-07-05T07:49:12;3.67;;;0.52;;
32186;SDS011;18686;53.084;8.872;2022-07-05T07:51:40;2.33;;;0.52;;
32186;SDS011;18686;53.084;8.872;2022-07-05T07:54:09;1.88;;;0.63;;
32186;SDS011;18686;53.084;8.872;2022-07-05T07:56:42;1.58;;;1.00;;
32186;SDS011;18686;53.084;8.872;2022-07-05T07:59:10;0.73;;;0.60;;
32186;SDS011;18686;53.084;8.872;2022-07-05T08:01:38;1.80;;;0.82;;
32186;SDS011;18686;53.084;8.872;2022-07-05T08:04:11;1.05;;;0.50;;
32186;SDS011;18686;53.084;8.872;2022-07-05T08:06:41;1.85;;;0.63;;
32186;SDS011;18686;53.084;8.872;2022-07-05T08:09:10;1.10;;;0.50;;
32186;SDS011;18686;53.084;8.872;2022-07-05T08:11:44;1.52;;;0.28;;
32186;SDS011;18686;53.084;8.872;2022-07-05T08:14:12;0.93;;;0.40;;
32186;SDS011;18686;53.084;8.872;2022-07-05T08:16:40;1.83;;;0.60;;
32186;SDS011;18686;53.084;8.872;2022-07-05T08:19:16;0.65;;;0.30;;
32186;SDS011;18686;53.084;8.872;2022-07-05T08:22:02;3.30;;;0.60;;
32186;SDS011;18686;53.084;8.872;2022-07-05T08:24:31;2.30;;;0.50;;
32186;SDS011;18686;53.084;8.872;2022-07-05T08:27:00;0.90;;;0.43;;
32186;SDS011;18686;53.084;8.872;2022-07-05T08:29:28;1.00;;;0.28;;
32186;SDS011;18686;53.084;8.872;2022-07-05T08:31:56;1.73;;;0.47;;
32186;SDS011;18686;53.084;8.872;2022-07-05T08:34:24;1.08;;;0.40;;
32186;SDS011;18686;53.084;8.872;2022-07-05T08:36:53;2.28;;;0.50;;
32186;SDS011;18686;53.084;8.872;2022-07-05T08:39:21;0.73;;;0.40;;
32186;SDS011;18686;53.084;8.872;2022-07-05T08:41:49;1.55;;;0.60;;
32186;SDS011;18686;53.084;8.872;2022-07-05T08:44:20;2.05;;;0.70;;
32186;SDS011;18686;53.084;8.872;2022-07-05T08:46:50;1.88;;;0.50;;
32186;SDS011;18686;53.084;8.872;2022-07-05T08:49:20;1.15;;;0.40;;
32186;SDS011;18686;53.084;8.872;2022-07-05T08:51:50;1.42;;;0.40;;
32186;SDS011;18686;53.084;8.872;2022-07-05T08:54:20;3.10;;;0.50;;
32186;SDS011;18686;53.084;8.872;2022-07-05T08:56:50;1.75;;;0.40;;
32186;SDS011;18686;53.084;8.872;2022-07-05T08:59:39;1.13;;;0.40;;
32186;SDS011;18686;53.084;8.872;2022-07-05T09:02:09;2.00;;;0.30;;
32186;SDS011;18686;53.084;8.872;2022-07-05T09:04:42;0.40;;;0.20;;
32186;SDS011;18686;53.084;8.872;2022-07-05T09:07:14;0.80;;;0.30;;
32186;SDS011;18686;53.084;8.872;2022-07-05T09:09:44;2.38;;;0.50;;
32186;SDS011;18686;53.084;8.872;2022-07-05T09:12:16;0.75;;;0.47;;
32186;SDS011;18686;53.084;8.872;2022-07-05T09:14:51;2.47;;;0.50;;
32186;SDS011;18686;53.084;8.872;2022-07-05T09:17:20;2.60;;;0.50;;
32186;SDS011;18686;53.084;8.872;2022-07-05T09:20:05;1.63;;;0.40;;
32186;SDS011;18686;53.084;8.872;2022-07-05T09:22:42;2.83;;;0.50;;
32186;SDS011;18686;53.084;8.872;2022-07-05T09:25:15;3.45;;;0.40;;
32186;SDS011;18686;53.084;8.872;2022-07-05T09:27:51;2.10;;;0.45;;
32186;SDS011;18686;53.084;8.872;2022-07-05T09:30:26;1.42;;;0.40;;
32186;SDS011;18686;53.084;8.872;2022-07-05T09:33:05;1.08;;;0.43;;
32186;SDS011;18686;53.084;8.872;2022-07-05T09:35:35;1.63;;;0.40;;
32186;SDS011;18686;53.084;8.872;2022-07-05T09:38:04;1.58;;;0.70;;
32186;SDS011;18686;53.084;8.872;2022-07-05T09:40:33;1.63;;;0.50;;
32186;SDS011;18686;53.084;8.872;2022-07-05T09:43:14;4.25;;;1.27;;
32186;SDS011;18686;53.084;8.872;2022-07-05T09:45:51;1.35;;;0.43;;
32186;SDS011;18686;53.084;8.872;2022-07-05T09:48:26;1.13;;;0.50;;
32186;SDS011;18686;53.084;8.872;2022-07-05T09:51:06;0.93;;;0.30;;
32186;SDS011;18686;53.084;8.872;2022-07-05T09:53:56;1.95;;;0.60;;
32186;SDS011;18686;53.084;8.872;2022-07-05T09:56:42;0.88;;;0.45;;
32186;SDS011;18686;53.084;8.872;2022-07-05T09:59:12;0.90;;;0.40;;
32186;SDS011;18686;53.084;8.872;2022-07-05T10:01:46;0.93;;;0.40;;
32186;SDS011;18686;53.084;8.872;2022-07-05T10:04:15;0.85;;;0.40;;
32186;SDS011;18686;53.084;8.872;2022-07-05T10:06:44;3.08;;;0.47;;
32186;SDS011;18686;53.084;8.872;2022-07-05T10:09:12;1.60;;;0.45;;
32186;SDS011;18686;53.084;8.872;2022-07-05T10:11:42;1.00;;;0.40;;
32186;SDS011;18686;53.084;8.872;2022-07-05T10:14:14;1.02;;;0.40;;
32186;SDS011;18686;53.084;8.872;2022-07-05T10:16:45;2.50;;;0.38;;
32186;SDS011;18686;53.084;8.872;2022-07-05T10:19:32;1.45;;;0.60;;
32186;SDS011;18686;53.084;8.872;2022-07-05T10:22:03;3.22;;;0.80;;
32186;SDS011;18686;53.084;8.872;2022-07-05T10:24:43;1.02;;;0.45;;
32186;SDS011;18686;53.084;8.872;2022-07-05T10:27:13;6.38;;;0.60;;
32186;SDS011;18686;53.084;8.872;2022-07-05T10:29:41;0.95;;;0.50;;
32186;SDS011;18686;53.084;8.872;2022-07-05T10:32:12;3.00;;;0.57;;
32186;SDS011;18686;53.084;8.872;2022-07-05T10:34:43;3.80;;;0.80;;
32186;SDS011;18686;53.084;8.872;2022-07-05T10:37:22;4.03;;;0.50;;
32186;SDS011;18686;53.084;8.872;2022-07-05T10:39:54;1.05;;;0.38;;
32186;SDS011;18686;53.084;8.872;2022-07-05T10:42:23;1.92;;;0.50;;
32186;SDS011;18686;53.084;8.872;2022-07-05T10:44:54;1.75;;;0.40;;
32186;SDS011;18686;53.084;8.872;2022-07-05T10:47:23;2.40;;;0.40;;
32186;SDS011;18686;53.084;8.872;2022-07-05T10:50:00;3.15;;;0.60;;
32186;SDS011;18686;53.084;8.872;2022-07-05T10:52:29;1.17;;;0.40;;
32186;SDS011;18686;53.084;8.872;2022-07-05T10:55:17;1.23;;;0.52;;
32186;SDS011;18686;53.084;8.872;2022-07-05T11:03:53;1.45;;;0.70;;
32186;SDS011;18686;53.084;8.872;2022-07-05T11:06:24;1.25;;;0.80;;
32186;SDS011;18686;53.084;8.872;2022-07-05T11:09:15;4.15;;;1.45;;
32186;SDS011;18686;53.084;8.872;2022-07-05T11:11:48;2.00;;;1.42;;
32186;SDS011;18686;53.084;8.872;2022-07-05T11:15:03;1.85;;;0.70;;
32186;SDS011;18686;53.084;8.872;2022-07-05T11:17:33;3.45;;;2.35;;
32186;SDS011;18686;53.084;8.872;2022-07-05T11:20:28;1.27;;;0.70;;
32186;SDS011;18686;53.084;8.872;2022-07-05T11:23:04;2.97;;;0.95;;
32186;SDS011;18686;53.084;8.872;2022-07-05T11:25:38;2.25;;;1.00;;
32186;SDS011;18686;53.084;8.872;2022-07-05T11:28:13;1.63;;;1.27;;
32186;SDS011;18686;53.084;8.872;2022-07-05T11:30:55;3.92;;;0.90;;
32186;SDS011;18686;53.084;8.872;2022-07-05T11:33:32;1.67;;;0.60;;
32186;SDS011;18686;53.084;8.872;2022-07-05T11:36:04;3.78;;;1.50;;
32186;SDS011;18686;53.084;8.872;2022-07-05T11:38:34;1.90;;;0.55;;
32186;SDS011;18686;53.084;8.872;2022-07-05T11:41:38;1.70;;;0.60;;
32186;SDS011;18686;53.084;8.872;2022-07-05T11:44:09;4.00;;;3.42;;
32186;SDS011;18686;53.084;8.872;2022-07-05T11:46:40;1.98;;;1.20;;
32186;SDS011;18686;53.084;8.872;2022-07-05T11:51:54;1.90;;;0.63;;
32186;SDS011;18686;53.084;8.872;2022-07-05T11:54:23;0.93;;;0.50;;
32186;SDS011;18686;53.084;8.872;2022-07-05T11:56:51;2.42;;;0.60;;
32186;SDS011;18686;53.084;8.872;2022-07-05T11:59:20;1.38;;;0.57;;
32186;SDS011;18686;53.084;8.872;2022-07-05T12:01:49;1.95;;;0.60;;
32186;SDS011;18686;53.084;8.872;2022-07-05T12:04:22;1.45;;;0.52;;
32186;SDS011;18686;53.084;8.872;2022-07-05T12:06:51;3.67;;;0.60;;
32186;SDS011;18686;53.084;8.872;2022-07-05T12:09:25;1.58;;;0.70;;
32186;SDS011;18686;53.084;8.872;2022-07-05T12:12:17;1.25;;;0.77;;
32186;SDS011;18686;53.084;8.872;2022-07-05T12:15:06;1.05;;;0.50;;
32186;SDS011;18686;53.084;8.872;2022-07-05T12:17:36;1.85;;;0.40;;
32186;SDS011;18686;53.084;8.872;2022-07-05T12:20:06;1.20;;;0.55;;
32186;SDS011;18686;53.084;8.872;2022-07-05T12:22:36;1.05;;;0.60;;
32186;SDS011;18686;53.084;8.872;2022-07-05T12:25:10;2.30;;;0.45;;
32186;SDS011;18686;53.084;8.872;2022-07-05T12:27:39;1.30;;;0.45;;
32186;SDS011;18686;53.084;8.872;2022-07-05T12:30:09;1.80;;;0.82;;
32186;SDS011;18686;53.084;8.872;2022-07-05T12:32:52;3.05;;;0.70;;
32186;SDS011;18686;53.084;8.872;2022-07-05T12:35:29;2.45;;;0.57;;
32186;SDS011;18686;53.084;8.872;2022-07-05T12:38:05;1.25;;;0.70;;
32186;SDS011;18686;53.084;8.872;2022-07-05T12:40:37;2.55;;;1.00;;
32186;SDS011;18686;53.084;8.872;2022-07-05T12:43:06;2.88;;;0.50;;
32186;SDS011;18686;53.084;8.872;2022-07-05T12:45:36;1.75;;;0.50;;
32186;SDS011;18686;53.084;8.872;2022-07-05T12:48:06;1.08;;;0.60;;
32186;SDS011;18686;53.084;8.872;2022-07-05T12:50:46;2.63;;;0.70;;
32186;SDS011;18686;53.084;8.872;2022-07-05T12:53:35;3.20;;;1.15;;
32186;SDS011;18686;53.084;8.872;2022-07-05T12:56:31;2.33;;;0.88;;
32186;SDS011;18686;53.084;8.872;2022-07-05T12:59:37;1.40;;;0.50;;
32186;SDS011;18686;53.084;8.872;2022-07-05T13:02:07;1.55;;;0.60;;
32186;SDS011;18686;53.084;8.872;2022-07-05T13:04:36;6.80;;;3.67;;
32186;SDS011;18686;53.084;8.872;2022-07-05T13:07:09;2.80;;;2.42;;
32186;SDS011;18686;53.084;8.872;2022-07-05T13:09:55;4.00;;;1.45;;
32186;SDS011;18686;53.084;8.872;2022-07-05T13:12:42;2.35;;;1.00;;
32186;SDS011;18686;53.084;8.872;2022-07-05T13:15:13;2.22;;;1.23;;
32186;SDS011;18686;53.084;8.872;2022-07-05T13:17:42;4.00;;;0.95;;
32186;SDS011;18686;53.084;8.872;2022-07-05T13:20:13;1.92;;;0.88;;
32186;SDS011;18686;53.084;8.872;2022-07-05T13:22:44;1.88;;;0.90;;
32186;SDS011;18686;53.084;8.872;2022-07-05T13:25:12;1.40;;;0.70;;
32186;SDS011;18686;53.084;8.872;2022-07-05T13:27:42;2.70;;;0.43;;
32186;SDS011;18686;53.084;8.872;2022-07-05T13:30:11;3.90;;;1.02;;
32186;SDS011;18686;53.084;8.872;2022-07-05T13:32:40;3.67;;;0.75;;
32186;SDS011;18686;53.084;8.872;2022-07-05T13:35:08;2.88;;;1.00;;
32186;SDS011;18686;53.084;8.872;2022-07-05T13:37:37;2.85;;;1.00;;
32186;SDS011;18686;53.084;8.872;2022-07-05T13:40:06;2.22;;;0.77;;
32186;SDS011;18686;53.084;8.872;2022-07-05T13:42:35;2.55;;;0.73;;
32186;SDS011;18686;53.084;8.872;2022-07-05T13:45:05;3.53;;;0.75;;
32186;SDS011;18686;53.084;8.872;2022-07-05T13:47:33;2.78;;;1.10;;
32186;SDS011;18686;53.084;8.872;2022-07-05T13:50:02;4.45;;;1.75;;
32186;SDS011;18686;53.084;8.872;2022-07-05T13:52:48;1.60;;;0.70;;
32186;SDS011;18686;53.084;8.872;2022-07-05T13:55:16;2.72;;;0.60;;
32186;SDS011;18686;53.084;8.872;2022-07-05T13:57:44;1.08;;;0.60;;
32186;SDS011;18686;53.084;8.872;2022-07-05T14:00:14;3.90;;;0.90;;
32186;SDS011;18686;53.084;8.872;2022-07-05T14:02:43;3.28;;;0.60;;
32186;SDS011;18686;53.084;8.872;2022-07-05T14:05:11;2.78;;;0.70;;
32186;SDS011;18686;53.084;8.872;2022-07-05T14:07:40;2.38;;;0.50;;
32186;SDS011;18686;53.084;8.872;2022-07-05T14:10:08;1.70;;;0.50;;
32186;SDS011;18686;53.084;8.872;2022-07-05T14:12:36;6.75;;;1.05;;
32186;SDS011;18686;53.084;8.872;2022-07-05T14:15:05;3.58;;;1.02;;
32186;SDS011;18686;53.084;8.872;2022-07-05T14:17:35;2.88;;;0.82;;
32186;SDS011;18686;53.084;8.872;2022-07-05T14:20:04;1.63;;;0.60;;
32186;SDS011;18686;53.084;8.872;2022-07-05T14:22:34;2.40;;;0.50;;
32186;SDS011;18686;53.084;8.872;2022-07-05T14:25:02;1.75;;;0.50;;
32186;SDS011;18686;53.084;8.872;2022-07-05T14:27:31;1.63;;;0.45;;
32186;SDS011;18686;53.084;8.872;2022-07-05T14:30:00;2.25;;;0.80;;
32186;SDS011;18686;53.084;8.872;2022-07-05T14:32:29;3.47;;;0.95;;
32186;SDS011;18686;53.084;8.872;2022-07-05T14:34:58;1.38;;;0.70;;
32186;SDS011;18686;53.084;8.872;2022-07-05T14:37:26;1.65;;;0.60;;
32186;SDS011;18686;53.084;8.872;2022-07-05T14:39:54;2.42;;;0.80;;
32186;SDS011;18686;53.084;8.872;2022-07-05T14:42:22;3.05;;;0.90;;
32186;SDS011;18686;53.084;8.872;2022-07-05T14:44:51;2.63;;;0.60;;
32186;SDS011;18686;53.084;8.872;2022-07-05T14:47:19;2.20;;;0.60;;
32186;SDS011;18686;53.084;8.872;2022-07-05T14:49:47;1.25;;;0.65;;
32186;SDS011;18686;53.084;8.872;2022-07-05T14:52:16;3.60;;;0.70;;
32186;SDS011;18686;53.084;8.872;2022-07-05T14:54:44;10.60;;;7.22;;
32186;SDS011;18686;53.084;8.872;2022-07-05T14:57:12;4.75;;;1.65;;
32186;SDS011;18686;53.084;8.872;2022-07-05T14:59:41;1.88;;;0.70;;
32186;SDS011;18686;53.084;8.872;2022-07-05T15:02:09;1.75;;;0.63;;
32186;SDS011;18686;53.084;8.872;2022-07-05T15:04:38;5.07;;;0.63;;
32186;SDS011;18686;53.084;8.872;2022-07-05T15:07:06;7.63;;;0.70;;
32186;SDS011;18686;53.084;8.872;2022-07-05T15:09:36;4.32;;;0.95;;
32186;SDS011;18686;53.084;8.872;2022-07-05T15:12:04;1.77;;;0.60;;
32186;SDS011;18686;53.084;8.872;2022-07-05T15:14:33;3.15;;;0.80;;
32186;SDS011;18686;53.084;8.872;2022-07-05T15:17:01;3.65;;;0.90;;
32186;SDS011;18686;53.084;8.872;2022-07-05T15:19:29;3.63;;;0.80;;
32186;SDS011;18686;53.084;8.872;2022-07-05T15:21:57;2.38;;;0.80;;
32186;SDS011;18686;53.084;8.872;2022-07-05T15:24:26;3.13;;;0.68;;